sensor_id;sensor_type;location;lat;lon;timestamp;P1;durP1;ratioP1;P2;durP2;ratioP2
76675;SDS011;69204;55.350;36.906;2023-06-04T00:04:59;42.00;;;6.95;;
76675;SDS011;69204;55.350;36.906;2023-06-04T00:10:00;58.37;;;6.70;;
76675;SDS011;69204;55.350;36.906;2023-06-04T00:15:04;22.45;;;4.97;;
76675;SDS011;69204;55.350;36.906;2023-06-04T00:20:06;11.10;;;4.63;;
76675;SDS011;69204;55.350;36.906;2023-06-04T00:25:10;9.57;;;4.00;;
76675;SDS011;69204;55.350;36.906;2023-06-04T00:30:11;8.70;;;4.22;;
76675;SDS011;69204;55.350;36.906;2023-06-04T00:35:12;10.33;;;4.50;;
76675;SDS011;69204;55.350;36.906;2023-06-04T00:40:14;12.10;;;4.30;;
76675;SDS011;69204;55.350;36.906;2023-06-04T00:45:15;10.60;;;4.15;;
76675;SDS011;69204;55.350;36.906;2023-06-04T00:50:19;63.47;;;17.47;;
76675;SDS011;69204;55.350;36.906;2023-06-04T00:55:21;29.38;;;10.40;;
76675;SDS011;69204;55.350;36.906;2023-06-04T01:00:22;22.00;;;8.93;;
76675;SDS011;69204;55.350;36.906;2023-06-04T01:05:32;18.42;;;7.75;;
76675;SDS011;69204;55.350;36.906;2023-06-04T01:10:49;13.50;;;6.10;;
76675;SDS011;69204;55.350;36.906;2023-06-04T01:15:53;10.10;;;4.80;;
76675;SDS011;69204;55.350;36.906;2023-06-04T01:20:59;13.80;;;4.80;;
76675;SDS011;69204;55.350;36.906;2023-06-04T01:26:02;11.83;;;4.33;;
76675;SDS011;69204;55.350;36.906;2023-06-04T01:31:05;10.40;;;4.78;;
76675;SDS011;69204;55.350;36.906;2023-06-04T01:36:10;9.60;;;4.18;;
76675;SDS011;69204;55.350;36.906;2023-06-04T01:41:12;11.20;;;3.73;;
76675;SDS011;69204;55.350;36.906;2023-06-04T01:46:13;13.93;;;4.38;;
76675;SDS011;69204;55.350;36.906;2023-06-04T01:51:15;12.87;;;4.90;;
76675;SDS011;69204;55.350;36.906;2023-06-04T01:56:16;6.35;;;3.58;;
76675;SDS011;69204;55.350;36.906;2023-06-04T02:01:21;8.32;;;3.90;;
76675;SDS011;69204;55.350;36.906;2023-06-04T02:06:22;8.37;;;3.40;;
76675;SDS011;69204;55.350;36.906;2023-06-04T02:11:25;5.15;;;3.00;;
76675;SDS011;69204;55.350;36.906;2023-06-04T02:16:26;7.23;;;3.80;;
76675;SDS011;69204;55.350;36.906;2023-06-04T02:21:27;5.20;;;2.90;;
76675;SDS011;69204;55.350;36.906;2023-06-04T02:26:29;7.03;;;3.35;;
76675;SDS011;69204;55.350;36.906;2023-06-04T02:31:30;8.00;;;3.10;;
76675;SDS011;69204;55.350;36.906;2023-06-04T02:36:31;4.32;;;3.30;;
76675;SDS011;69204;55.350;36.906;2023-06-04T02:41:32;7.70;;;3.40;;
76675;SDS011;69204;55.350;36.906;2023-06-04T02:46:33;4.68;;;3.17;;
76675;SDS011;69204;55.350;36.906;2023-06-04T02:51:34;6.15;;;3.42;;
76675;SDS011;69204;55.350;36.906;2023-06-04T02:56:36;4.07;;;2.70;;
76675;SDS011;69204;55.350;36.906;2023-06-04T03:01:37;6.25;;;2.83;;
76675;SDS011;69204;55.350;36.906;2023-06-04T03:06:39;5.53;;;2.23;;
76675;SDS011;69204;55.350;36.906;2023-06-04T03:11:46;5.47;;;2.20;;
76675;SDS011;69204;55.350;36.906;2023-06-04T03:16:49;8.98;;;2.17;;
76675;SDS011;69204;55.350;36.906;2023-06-04T03:21:52;6.10;;;2.10;;
76675;SDS011;69204;55.350;36.906;2023-06-04T03:26:54;4.20;;;2.17;;
76675;SDS011;69204;55.350;36.906;2023-06-04T03:31:56;6.00;;;2.50;;
76675;SDS011;69204;55.350;36.906;2023-06-04T03:36:58;3.90;;;2.22;;
76675;SDS011;69204;55.350;36.906;2023-06-04T03:41:59;5.88;;;2.38;;
76675;SDS011;69204;55.350;36.906;2023-06-04T03:47:01;5.17;;;2.43;;
76675;SDS011;69204;55.350;36.906;2023-06-04T03:52:02;15.07;;;2.70;;
76675;SDS011;69204;55.350;36.906;2023-06-04T03:57:03;5.63;;;3.67;;
76675;SDS011;69204;55.350;36.906;2023-06-04T04:02:05;5.07;;;3.03;;
76675;SDS011;69204;55.350;36.906;2023-06-04T04:07:06;4.13;;;2.60;;
76675;SDS011;69204;55.350;36.906;2023-06-04T04:12:07;5.47;;;2.67;;
76675;SDS011;69204;55.350;36.906;2023-06-04T04:17:08;6.22;;;2.58;;
76675;SDS011;69204;55.350;36.906;2023-06-04T04:22:10;9.40;;;2.80;;
76675;SDS011;69204;55.350;36.906;2023-06-04T04:27:11;4.70;;;2.55;;
76675;SDS011;69204;55.350;36.906;2023-06-04T04:32:12;5.13;;;2.80;;
76675;SDS011;69204;55.350;36.906;2023-06-04T04:37:13;4.20;;;2.60;;
76675;SDS011;69204;55.350;36.906;2023-06-04T04:42:14;5.97;;;2.85;;
76675;SDS011;69204;55.350;36.906;2023-06-04T04:47:16;3.77;;;2.60;;
76675;SDS011;69204;55.350;36.906;2023-06-04T04:52:17;6.65;;;2.65;;
76675;SDS011;69204;55.350;36.906;2023-06-04T04:57:18;4.80;;;2.80;;
76675;SDS011;69204;55.350;36.906;2023-06-04T05:02:20;4.53;;;2.37;;
76675;SDS011;69204;55.350;36.906;2023-06-04T05:07:21;3.83;;;2.80;;
76675;SDS011;69204;55.350;36.906;2023-06-04T05:12:25;4.97;;;2.53;;
76675;SDS011;69204;55.350;36.906;2023-06-04T05:17:27;9.77;;;2.60;;
76675;SDS011;69204;55.350;36.906;2023-06-04T05:22:30;3.42;;;2.20;;
76675;SDS011;69204;55.350;36.906;2023-06-04T05:27:32;6.33;;;2.60;;
76675;SDS011;69204;55.350;36.906;2023-06-04T05:32:33;7.15;;;3.80;;
76675;SDS011;69204;55.350;36.906;2023-06-04T05:37:37;5.23;;;3.70;;
76675;SDS011;69204;55.350;36.906;2023-06-04T05:42:54;4.18;;;2.28;;
76675;SDS011;69204;55.350;36.906;2023-06-04T05:47:55;4.28;;;1.92;;
76675;SDS011;69204;55.350;36.906;2023-06-04T05:52:58;4.37;;;1.50;;
76675;SDS011;69204;55.350;36.906;2023-06-04T05:57:59;3.95;;;1.60;;
76675;SDS011;69204;55.350;36.906;2023-06-04T06:03:00;5.37;;;1.80;;
76675;SDS011;69204;55.350;36.906;2023-06-04T06:08:02;12.40;;;4.10;;
76675;SDS011;69204;55.350;36.906;2023-06-04T06:13:03;4.15;;;1.65;;
76675;SDS011;69204;55.350;36.906;2023-06-04T06:18:04;3.57;;;1.50;;
76675;SDS011;69204;55.350;36.906;2023-06-04T06:23:06;3.65;;;1.70;;
76675;SDS011;69204;55.350;36.906;2023-06-04T06:28:07;7.10;;;1.60;;
76675;SDS011;69204;55.350;36.906;2023-06-04T06:33:08;4.13;;;1.83;;
76675;SDS011;69204;55.350;36.906;2023-06-04T06:38:09;5.03;;;1.98;;
76675;SDS011;69204;55.350;36.906;2023-06-04T06:43:10;6.40;;;1.73;;
76675;SDS011;69204;55.350;36.906;2023-06-04T06:48:11;5.47;;;2.17;;
76675;SDS011;69204;55.350;36.906;2023-06-04T06:53:13;3.17;;;1.87;;
76675;SDS011;69204;55.350;36.906;2023-06-04T06:58:14;3.42;;;1.88;;
76675;SDS011;69204;55.350;36.906;2023-06-04T07:03:16;4.07;;;1.70;;
76675;SDS011;69204;55.350;36.906;2023-06-04T07:08:17;4.47;;;1.77;;
76675;SDS011;69204;55.350;36.906;2023-06-04T07:13:18;3.20;;;1.52;;
76675;SDS011;69204;55.350;36.906;2023-06-04T07:18:20;3.67;;;1.73;;
76675;SDS011;69204;55.350;36.906;2023-06-04T07:23:21;3.50;;;1.60;;
76675;SDS011;69204;55.350;36.906;2023-06-04T07:28:27;38.05;;;9.65;;
76675;SDS011;69204;55.350;36.906;2023-06-04T07:33:28;5.70;;;2.10;;
76675;SDS011;69204;55.350;36.906;2023-06-04T07:38:30;3.90;;;1.90;;
76675;SDS011;69204;55.350;36.906;2023-06-04T07:43:34;3.23;;;1.50;;
76675;SDS011;69204;55.350;36.906;2023-06-04T07:48:38;4.75;;;2.13;;
76675;SDS011;69204;55.350;36.906;2023-06-04T07:53:39;4.18;;;1.83;;
76675;SDS011;69204;55.350;36.906;2023-06-04T07:58:41;4.10;;;1.50;;
76675;SDS011;69204;55.350;36.906;2023-06-04T08:03:42;4.25;;;1.70;;
76675;SDS011;69204;55.350;36.906;2023-06-04T08:08:43;5.47;;;1.90;;
76675;SDS011;69204;55.350;36.906;2023-06-04T08:13:46;3.10;;;1.63;;
76675;SDS011;69204;55.350;36.906;2023-06-04T08:18:47;3.75;;;1.80;;
76675;SDS011;69204;55.350;36.906;2023-06-04T08:23:57;6.27;;;1.60;;
76675;SDS011;69204;55.350;36.906;2023-06-04T08:29:19;3.15;;;1.40;;
76675;SDS011;69204;55.350;36.906;2023-06-04T08:34:20;3.37;;;1.40;;
76675;SDS011;69204;55.350;36.906;2023-06-04T08:39:22;4.47;;;2.05;;
76675;SDS011;69204;55.350;36.906;2023-06-04T08:44:23;3.20;;;1.60;;
76675;SDS011;69204;55.350;36.906;2023-06-04T08:49:25;3.40;;;1.57;;
76675;SDS011;69204;55.350;36.906;2023-06-04T08:54:27;5.68;;;1.60;;
76675;SDS011;69204;55.350;36.906;2023-06-04T08:59:29;3.23;;;1.57;;
76675;SDS011;69204;55.350;36.906;2023-06-04T09:04:30;4.05;;;1.40;;
76675;SDS011;69204;55.350;36.906;2023-06-04T09:09:33;4.40;;;1.90;;
76675;SDS011;69204;55.350;36.906;2023-06-04T09:14:37;2.90;;;1.50;;
76675;SDS011;69204;55.350;36.906;2023-06-04T09:19:38;3.20;;;1.90;;
76675;SDS011;69204;55.350;36.906;2023-06-04T09:29:51;2.92;;;1.60;;
76675;SDS011;69204;55.350;36.906;2023-06-04T09:34:53;2.95;;;1.33;;
76675;SDS011;69204;55.350;36.906;2023-06-04T09:39:55;3.60;;;1.47;;
76675;SDS011;69204;55.350;36.906;2023-06-04T09:44:56;4.38;;;2.28;;
76675;SDS011;69204;55.350;36.906;2023-06-04T09:49:59;6.07;;;2.47;;
76675;SDS011;69204;55.350;36.906;2023-06-04T09:55:01;5.45;;;1.70;;
76675;SDS011;69204;55.350;36.906;2023-06-04T10:00:04;4.88;;;2.08;;
76675;SDS011;69204;55.350;36.906;2023-06-04T10:05:10;3.53;;;1.60;;
76675;SDS011;69204;55.350;36.906;2023-06-04T10:10:15;3.88;;;2.00;;
76675;SDS011;69204;55.350;36.906;2023-06-04T10:15:17;4.30;;;2.40;;
76675;SDS011;69204;55.350;36.906;2023-06-04T10:20:18;5.05;;;1.67;;
76675;SDS011;69204;55.350;36.906;2023-06-04T10:25:21;3.58;;;1.88;;
76675;SDS011;69204;55.350;36.906;2023-06-04T10:30:22;3.20;;;1.60;;
76675;SDS011;69204;55.350;36.906;2023-06-04T10:35:32;3.70;;;2.03;;
76675;SDS011;69204;55.350;36.906;2023-06-04T10:40:34;3.80;;;1.70;;
76675;SDS011;69204;55.350;36.906;2023-06-04T10:45:36;3.53;;;1.50;;
76675;SDS011;69204;55.350;36.906;2023-06-04T10:50:51;5.22;;;1.65;;
76675;SDS011;69204;55.350;36.906;2023-06-04T10:55:52;4.07;;;2.00;;
76675;SDS011;69204;55.350;36.906;2023-06-04T11:00:53;5.25;;;2.38;;
76675;SDS011;69204;55.350;36.906;2023-06-04T11:05:55;7.13;;;2.60;;
76675;SDS011;69204;55.350;36.906;2023-06-04T11:10:57;5.82;;;2.90;;
76675;SDS011;69204;55.350;36.906;2023-06-04T11:15:58;4.28;;;1.88;;
76675;SDS011;69204;55.350;36.906;2023-06-04T11:21:00;3.10;;;1.70;;
76675;SDS011;69204;55.350;36.906;2023-06-04T11:26:04;3.30;;;1.50;;
76675;SDS011;69204;55.350;36.906;2023-06-04T11:31:05;3.87;;;1.93;;
76675;SDS011;69204;55.350;36.906;2023-06-04T11:36:06;5.28;;;2.28;;
76675;SDS011;69204;55.350;36.906;2023-06-04T11:41:07;6.20;;;2.33;;
76675;SDS011;69204;55.350;36.906;2023-06-04T11:46:08;4.70;;;2.10;;
76675;SDS011;69204;55.350;36.906;2023-06-04T11:51:09;6.00;;;2.00;;
76675;SDS011;69204;55.350;36.906;2023-06-04T11:56:11;7.87;;;3.00;;
76675;SDS011;69204;55.350;36.906;2023-06-04T12:01:12;7.13;;;2.30;;
76675;SDS011;69204;55.350;36.906;2023-06-04T12:06:14;9.25;;;2.70;;
76675;SDS011;69204;55.350;36.906;2023-06-04T12:11:26;5.93;;;2.63;;
76675;SDS011;69204;55.350;36.906;2023-06-04T12:16:34;7.07;;;3.10;;
76675;SDS011;69204;55.350;36.906;2023-06-04T12:21:35;4.13;;;1.90;;
76675;SDS011;69204;55.350;36.906;2023-06-04T12:26:37;3.95;;;1.73;;
76675;SDS011;69204;55.350;36.906;2023-06-04T12:31:41;3.33;;;1.70;;
76675;SDS011;69204;55.350;36.906;2023-06-04T12:36:46;7.33;;;1.80;;
76675;SDS011;69204;55.350;36.906;2023-06-04T12:41:47;12.68;;;7.38;;
76675;SDS011;69204;55.350;36.906;2023-06-04T12:46:49;5.77;;;2.90;;
76675;SDS011;69204;55.350;36.906;2023-06-04T12:51:50;6.35;;;1.83;;
76675;SDS011;69204;55.350;36.906;2023-06-04T12:56:51;6.50;;;2.60;;
76675;SDS011;69204;55.350;36.906;2023-06-04T13:01:53;4.67;;;2.50;;
76675;SDS011;69204;55.350;36.906;2023-06-04T13:06:55;5.60;;;1.70;;
76675;SDS011;69204;55.350;36.906;2023-06-04T13:11:59;5.50;;;1.80;;
76675;SDS011;69204;55.350;36.906;2023-06-04T13:17:00;4.32;;;1.50;;
76675;SDS011;69204;55.350;36.906;2023-06-04T13:22:01;3.42;;;1.70;;
76675;SDS011;69204;55.350;36.906;2023-06-04T13:27:02;5.43;;;1.60;;
76675;SDS011;69204;55.350;36.906;2023-06-04T13:32:03;3.65;;;1.70;;
76675;SDS011;69204;55.350;36.906;2023-06-04T13:37:05;5.00;;;1.87;;
76675;SDS011;69204;55.350;36.906;2023-06-04T13:42:07;4.10;;;1.80;;
76675;SDS011;69204;55.350;36.906;2023-06-04T13:47:08;3.90;;;1.58;;
76675;SDS011;69204;55.350;36.906;2023-06-04T13:52:09;3.47;;;1.57;;
76675;SDS011;69204;55.350;36.906;2023-06-04T13:57:10;4.85;;;1.50;;
76675;SDS011;69204;55.350;36.906;2023-06-04T14:02:12;5.10;;;1.57;;
76675;SDS011;69204;55.350;36.906;2023-06-04T14:07:13;4.00;;;1.33;;
76675;SDS011;69204;55.350;36.906;2023-06-04T14:12:14;3.47;;;1.50;;
76675;SDS011;69204;55.350;36.906;2023-06-04T14:17:18;4.30;;;1.80;;
76675;SDS011;69204;55.350;36.906;2023-06-04T14:22:19;4.75;;;1.83;;
76675;SDS011;69204;55.350;36.906;2023-06-04T14:27:20;4.87;;;1.37;;
76675;SDS011;69204;55.350;36.906;2023-06-04T14:32:22;5.45;;;1.83;;
76675;SDS011;69204;55.350;36.906;2023-06-04T14:37:23;4.60;;;1.70;;
76675;SDS011;69204;55.350;36.906;2023-06-04T14:42:24;6.73;;;2.00;;
76675;SDS011;69204;55.350;36.906;2023-06-04T14:47:25;4.53;;;1.90;;
76675;SDS011;69204;55.350;36.906;2023-06-04T14:52:35;7.97;;;1.70;;
76675;SDS011;69204;55.350;36.906;2023-06-04T14:57:36;3.70;;;1.70;;
76675;SDS011;69204;55.350;36.906;2023-06-04T15:02:37;3.93;;;1.70;;
76675;SDS011;69204;55.350;36.906;2023-06-04T15:07:47;5.18;;;1.60;;
76675;SDS011;69204;55.350;36.906;2023-06-04T15:12:48;5.97;;;1.50;;
76675;SDS011;69204;55.350;36.906;2023-06-04T15:17:49;2.80;;;1.10;;
76675;SDS011;69204;55.350;36.906;2023-06-04T15:22:50;3.83;;;2.10;;
76675;SDS011;69204;55.350;36.906;2023-06-04T15:27:51;3.50;;;1.90;;
76675;SDS011;69204;55.350;36.906;2023-06-04T15:32:52;4.07;;;1.52;;
76675;SDS011;69204;55.350;36.906;2023-06-04T15:37:53;3.70;;;1.70;;
76675;SDS011;69204;55.350;36.906;2023-06-04T15:42:54;5.27;;;1.73;;
76675;SDS011;69204;55.350;36.906;2023-06-04T15:47:55;4.47;;;1.63;;
76675;SDS011;69204;55.350;36.906;2023-06-04T15:52:56;4.73;;;2.10;;
76675;SDS011;69204;55.350;36.906;2023-06-04T15:57:57;3.85;;;1.60;;
76675;SDS011;69204;55.350;36.906;2023-06-04T16:02:58;4.03;;;1.60;;
76675;SDS011;69204;55.350;36.906;2023-06-04T16:07:59;3.33;;;1.50;;
76675;SDS011;69204;55.350;36.906;2023-06-04T16:13:00;3.85;;;2.00;;
76675;SDS011;69204;55.350;36.906;2023-06-04T16:18:04;7.27;;;3.67;;
76675;SDS011;69204;55.350;36.906;2023-06-04T16:23:04;3.42;;;1.75;;
76675;SDS011;69204;55.350;36.906;2023-06-04T16:28:05;3.70;;;2.03;;
76675;SDS011;69204;55.350;36.906;2023-06-04T16:33:06;3.13;;;1.60;;
76675;SDS011;69204;55.350;36.906;2023-06-04T16:38:07;3.53;;;1.77;;
76675;SDS011;69204;55.350;36.906;2023-06-04T16:43:08;3.63;;;1.77;;
76675;SDS011;69204;55.350;36.906;2023-06-04T16:48:09;4.03;;;2.00;;
76675;SDS011;69204;55.350;36.906;2023-06-04T16:53:10;4.03;;;1.70;;
76675;SDS011;69204;55.350;36.906;2023-06-04T16:58:11;6.53;;;1.53;;
76675;SDS011;69204;55.350;36.906;2023-06-04T17:03:12;4.28;;;1.73;;
76675;SDS011;69204;55.350;36.906;2023-06-04T17:08:13;3.70;;;1.63;;
76675;SDS011;69204;55.350;36.906;2023-06-04T17:13:14;3.60;;;1.70;;
76675;SDS011;69204;55.350;36.906;2023-06-04T17:18:16;4.20;;;2.00;;
76675;SDS011;69204;55.350;36.906;2023-06-04T17:23:21;5.97;;;3.20;;
76675;SDS011;69204;55.350;36.906;2023-06-04T17:28:23;6.53;;;3.65;;
76675;SDS011;69204;55.350;36.906;2023-06-04T17:33:24;5.30;;;2.10;;
76675;SDS011;69204;55.350;36.906;2023-06-04T17:38:25;5.93;;;1.70;;
76675;SDS011;69204;55.350;36.906;2023-06-04T17:43:27;4.13;;;2.00;;
76675;SDS011;69204;55.350;36.906;2023-06-04T17:48:28;6.30;;;3.80;;
76675;SDS011;69204;55.350;36.906;2023-06-04T17:53:29;5.68;;;2.47;;
76675;SDS011;69204;55.350;36.906;2023-06-04T17:58:30;5.40;;;2.20;;
76675;SDS011;69204;55.350;36.906;2023-06-04T18:03:31;3.90;;;1.70;;
76675;SDS011;69204;55.350;36.906;2023-06-04T18:08:32;7.13;;;2.10;;
76675;SDS011;69204;55.350;36.906;2023-06-04T18:13:34;4.85;;;2.38;;
76675;SDS011;69204;55.350;36.906;2023-06-04T18:18:35;5.13;;;2.90;;
76675;SDS011;69204;55.350;36.906;2023-06-04T18:23:37;6.22;;;2.60;;
76675;SDS011;69204;55.350;36.906;2023-06-04T18:28:39;7.43;;;4.15;;
76675;SDS011;69204;55.350;36.906;2023-06-04T18:33:52;6.93;;;3.47;;
76675;SDS011;69204;55.350;36.906;2023-06-04T18:38:54;5.80;;;2.88;;
76675;SDS011;69204;55.350;36.906;2023-06-04T18:43:55;10.53;;;4.00;;
76675;SDS011;69204;55.350;36.906;2023-06-04T18:48:56;21.55;;;10.75;;
76675;SDS011;69204;55.350;36.906;2023-06-04T18:54:02;19.40;;;8.45;;
76675;SDS011;69204;55.350;36.906;2023-06-04T18:59:04;20.30;;;8.27;;
76675;SDS011;69204;55.350;36.906;2023-06-04T19:04:06;13.82;;;7.22;;
76675;SDS011;69204;55.350;36.906;2023-06-04T19:09:08;15.90;;;7.00;;
76675;SDS011;69204;55.350;36.906;2023-06-04T19:14:10;11.95;;;6.35;;
76675;SDS011;69204;55.350;36.906;2023-06-04T19:19:11;13.47;;;7.80;;
76675;SDS011;69204;55.350;36.906;2023-06-04T19:24:12;16.02;;;7.90;;
76675;SDS011;69204;55.350;36.906;2023-06-04T19:29:13;17.15;;;7.38;;
76675;SDS011;69204;55.350;36.906;2023-06-04T19:34:14;17.77;;;8.07;;
76675;SDS011;69204;55.350;36.906;2023-06-04T19:39:15;19.70;;;9.68;;
76675;SDS011;69204;55.350;36.906;2023-06-04T19:44:16;26.93;;;11.30;;
76675;SDS011;69204;55.350;36.906;2023-06-04T19:49:17;20.10;;;9.18;;
76675;SDS011;69204;55.350;36.906;2023-06-04T19:54:20;16.57;;;8.43;;
76675;SDS011;69204;55.350;36.906;2023-06-04T19:59:21;16.00;;;7.32;;
76675;SDS011;69204;55.350;36.906;2023-06-04T20:04:22;14.77;;;7.30;;
76675;SDS011;69204;55.350;36.906;2023-06-04T20:09:24;18.63;;;7.40;;
76675;SDS011;69204;55.350;36.906;2023-06-04T20:14:26;15.05;;;6.68;;
76675;SDS011;69204;55.350;36.906;2023-06-04T20:19:27;14.10;;;6.67;;
76675;SDS011;69204;55.350;36.906;2023-06-04T20:24:28;15.10;;;6.35;;
76675;SDS011;69204;55.350;36.906;2023-06-04T20:29:28;13.23;;;6.83;;
76675;SDS011;69204;55.350;36.906;2023-06-04T20:34:30;13.57;;;6.30;;
76675;SDS011;69204;55.350;36.906;2023-06-04T20:39:31;12.07;;;5.60;;
76675;SDS011;69204;55.350;36.906;2023-06-04T20:44:34;15.38;;;6.30;;
76675;SDS011;69204;55.350;36.906;2023-06-04T20:49:35;15.70;;;6.85;;
76675;SDS011;69204;55.350;36.906;2023-06-04T20:54:36;17.70;;;6.43;;
76675;SDS011;69204;55.350;36.906;2023-06-04T20:59:37;16.02;;;8.90;;
76675;SDS011;69204;55.350;36.906;2023-06-04T21:04:38;18.27;;;9.60;;
76675;SDS011;69204;55.350;36.906;2023-06-04T21:09:39;19.35;;;9.43;;
76675;SDS011;69204;55.350;36.906;2023-06-04T21:14:40;20.65;;;9.60;;
76675;SDS011;69204;55.350;36.906;2023-06-04T21:19:41;19.93;;;9.17;;
76675;SDS011;69204;55.350;36.906;2023-06-04T21:24:43;17.52;;;8.43;;
76675;SDS011;69204;55.350;36.906;2023-06-04T21:29:45;24.23;;;9.80;;
76675;SDS011;69204;55.350;36.906;2023-06-04T21:34:46;20.38;;;8.85;;
76675;SDS011;69204;55.350;36.906;2023-06-04T21:39:48;22.30;;;9.73;;
76675;SDS011;69204;55.350;36.906;2023-06-04T21:44:49;16.58;;;8.60;;
76675;SDS011;69204;55.350;36.906;2023-06-04T21:49:50;21.53;;;9.27;;
76675;SDS011;69204;55.350;36.906;2023-06-04T21:54:51;20.83;;;8.60;;
76675;SDS011;69204;55.350;36.906;2023-06-04T21:59:52;16.83;;;8.43;;
76675;SDS011;69204;55.350;36.906;2023-06-04T22:04:53;19.55;;;9.05;;
76675;SDS011;69204;55.350;36.906;2023-06-04T22:09:54;19.27;;;9.90;;
76675;SDS011;69204;55.350;36.906;2023-06-04T22:14:55;20.88;;;9.43;;
76675;SDS011;69204;55.350;36.906;2023-06-04T22:19:55;21.73;;;9.23;;
76675;SDS011;69204;55.350;36.906;2023-06-04T22:24:56;25.48;;;8.65;;
76675;SDS011;69204;55.350;36.906;2023-06-04T22:29:57;18.13;;;9.23;;
76675;SDS011;69204;55.350;36.906;2023-06-04T22:34:58;16.73;;;8.95;;
76675;SDS011;69204;55.350;36.906;2023-06-04T22:39:59;17.83;;;8.13;;
76675;SDS011;69204;55.350;36.906;2023-06-04T22:45:01;22.23;;;8.98;;
76675;SDS011;69204;55.350;36.906;2023-06-04T22:50:04;16.35;;;9.75;;
76675;SDS011;69204;55.350;36.906;2023-06-04T22:55:08;18.30;;;10.33;;
76675;SDS011;69204;55.350;36.906;2023-06-04T23:00:10;18.05;;;9.73;;
76675;SDS011;69204;55.350;36.906;2023-06-04T23:05:11;18.67;;;8.07;;
76675;SDS011;69204;55.350;36.906;2023-06-04T23:10:12;19.15;;;9.07;;
76675;SDS011;69204;55.350;36.906;2023-06-04T23:15:31;15.23;;;7.93;;
76675;SDS011;69204;55.350;36.906;2023-06-04T23:20:32;16.70;;;8.83;;
76675;SDS011;69204;55.350;36.906;2023-06-04T23:25:33;19.40;;;8.52;;
76675;SDS011;69204;55.350;36.906;2023-06-04T23:30:34;16.80;;;8.57;;
76675;SDS011;69204;55.350;36.906;2023-06-04T23:35:35;14.90;;;8.45;;
76675;SDS011;69204;55.350;36.906;2023-06-04T23:40:36;14.80;;;8.20;;
76675;SDS011;69204;55.350;36.906;2023-06-04T23:45:37;13.73;;;7.38;;
76675;SDS011;69204;55.350;36.906;2023-06-04T23:50:38;12.07;;;6.87;;
76675;SDS011;69204;55.350;36.906;2023-06-04T23:55:39;16.38;;;7.85;;
